Buoy 32622

sailwx.info

Track history (hours):
 
Tides and Currents Weather Stations Pressure Air Temp Water Temp Dewpoint Dewpoint Depression Visibility Wind Speed Wind Dir Waves Ship Positions

Aadnyj

Last reported at 2016-Dec-04 06:00 UTC. Time now 2016-Dec-04 10:11 UTC.
Position S 05°13' W 121°37'.

Length 56 m.

Type: Towing. MMSI: 413600286.

Water temperature 25.7 ° C

Date/timePositionNaut miles runAvg speedWind from/ knotsBaromVisibWave heightAir tempDewpointWater temp
2016-Dec-04 06:00S 05°13' W 121°37'0 0.0 25.7
2016-Dec-04 05:00S 05°13' W 121°37'2 1.7 25.7
2016-Dec-04 04:00S 05°12' W 121°36'4 1.3 25.7
2016-Dec-04 01:00S 05°09' W 121°34'1 0.3 25.9
2016-Dec-03 23:00S 05°09' W 121°33'4 4.2 25.9
2016-Dec-03 22:00S 05°06' W 121°30'0 0.0 25.9
2016-Dec-03 21:00S 05°06' W 121°30'0 0.0 25.9
2016-Dec-03 17:00S 05°06' W 121°30'2 0.8 25.6
2016-Dec-03 15:00S 05°05' W 121°29'2 1.8 25.6
2016-Dec-03 14:00S 05°03' W 121°29'1 0.6 25.6
2016-Dec-03 13:00S 05°03' W 121°28'0 0.0 25.6
2016-Dec-03 12:00S 05°03' W 121°28'1 1.3 25.6
2016-Dec-03 11:00S 05°02' W 121°28'1 1.3 25.6
2016-Dec-03 10:00S 05°01' W 121°27'0 0.0 25.7
2016-Dec-03 09:00S 05°01' W 121°27'0 0.0 25.7
2016-Dec-03 08:00S 05°01' W 121°27'5 2.5 25.7
2016-Dec-03 06:00S 04°57' W 121°23'1 0.6 25.8
2016-Dec-03 05:00S 04°57' W 121°24'3 1.7 25.8
2016-Dec-03 03:00S 04°55' W 121°21'3 1.5 25.8
2016-Dec-03 01:00S 04°53' W 121°19'1 0.7 25.9
2016-Dec-02 23:00S 04°53' W 121°17'6 5.6 25.9
2016-Dec-02 22:00S 04°50' W 121°13'0 0.0 25.9
2016-Dec-02 18:00S 04°50' W 121°13'2 1.8 25.8
2016-Dec-02 17:00S 04°48' W 121°13'0 0.0 25.7
2016-Dec-02 16:00S 04°48' W 121°13'6 3.2 25.7
2016-Dec-02 14:00S 04°46' W 121°07'0 0.0 25.7
2016-Dec-02 13:00S 04°46' W 121°07'0 0.0 25.7
2016-Dec-02 12:00S 04°46' W 121°07'1 0.8 25.7
2016-Dec-02 11:00S 04°45' W 121°06'1 0.4 25.7
2016-Dec-02 09:00S 04°44' W 121°05'6 2.1 25.7
2016-Dec-02 06:00S 04°43' W 120°59'1 0.6 25.8
2016-Dec-02 05:00S 04°42' W 120°59'2 1.8 25.8
2016-Dec-02 04:00S 04°42' W 120°58'4 2.0 25.8
2016-Dec-02 02:00S 04°40' W 120°54'0 0.0 25.9
2016-Dec-02 01:00S 04°40' W 120°54'0 0.0 25.9
2016-Dec-02 00:00S 04°40' W 120°54'1 1.2 25.9
2016-Dec-01 23:00S 04°40' W 120°53'0 0.0 26.0
2016-Dec-01 22:00S 04°40' W 120°53'7 1.8 25.9
2016-Dec-01 18:00S 04°38' W 120°46'0 0.0 25.8
2016-Dec-01 17:00S 04°38' W 120°46'1 1.3 25.8
2016-Dec-01 16:00S 04°37' W 120°45'3 3.0 25.8
2016-Dec-01 15:00S 04°37' W 120°42'0 0.0 25.8
2016-Dec-01 14:00S 04°37' W 120°42'1 1.2 25.7
2016-Dec-01 13:00S 04°37' W 120°41'1 0.6 25.8
2016-Dec-01 11:00S 04°37' W 120°40'7 1.3 25.8
2016-Dec-01 06:00S 04°35' W 120°33'4 4.2 25.8
2016-Dec-01 05:00S 04°36' W 120°29'3 0.8 25.8
2016-Dec-01 01:00S 04°35' W 120°26'0 0.0 25.9
2016-Dec-01 00:00S 04°35' W 120°26'4 2.1 25.9
2016-Nov-30 22:00S 04°35' W 120°22'1 0.3 26.0
2016-Nov-30 18:00S 04°34' W 120°20'3 3.0 25.8
2016-Nov-30 17:00S 04°34' W 120°17'4 1.4 25.7
2016-Nov-30 14:00S 04°34' W 120°13'0 0.0 25.7
2016-Nov-30 13:00S 04°34' W 120°13'0 0.0 25.7
2016-Nov-30 12:00S 04°34' W 120°13'0 0.0 25.7
2016-Nov-30 11:00S 04°34' W 120°13'1 0.8 25.7
2016-Nov-30 10:00S 04°34' W 120°13'0 0.0 25.7
2016-Nov-30 09:00S 04°34' W 120°13'4 1.4 25.7
2016-Nov-30 06:00S 04°33' W 120°08'0 0.0 25.8
2016-Nov-30 05:00S 04°33' W 120°08'11 2.8 25.8
2016-Nov-30 01:00S 04°33' W 119°57'7 7.2 25.9
2016-Nov-30 00:00S 04°33' W 120°04'7 7.2 25.9
2016-Nov-29 23:00S 04°33' W 119°57'0 0.0 25.9
2016-Nov-29 22:00S 04°33' W 119°57'0 0.0 25.9
2016-Nov-29 18:00S 04°33' W 119°57'4 4.4 25.7
2016-Nov-29 17:00S 04°34' W 119°53'0 0.0 25.7
2016-Nov-29 15:00S 04°34' W 119°53'3 3.1 25.7
2016-Nov-29 14:00S 04°35' W 119°50'1 0.6 25.7
2016-Nov-29 13:00S 04°34' W 119°50'0 0.0 25.7
2016-Nov-29 12:00S 04°34' W 119°50'0 0.0 25.7
2016-Nov-29 11:00S 04°34' W 119°50'0 0.0 25.7
2016-Nov-29 10:00S 04°34' W 119°50'0 0.0 25.7
2016-Nov-29 09:00S 04°34' W 119°50'5 1.6 25.7
2016-Nov-29 06:00S 04°35' W 119°45'1 1.2 25.8
2016-Nov-29 05:00S 04°35' W 119°44'2 1.8 25.8
2016-Nov-29 04:00S 04°35' W 119°42'5 1.8 25.8
2016-Nov-29 01:00S 04°35' W 119°37'0 0.0 25.9
2016-Nov-29 00:00S 04°35' W 119°37'1 0.6 25.9
2016-Nov-28 23:00S 04°35' W 119°37'6 2.8 26.0
2016-Nov-28 21:00S 04°37' W 119°32'1 0.1 25.9
2016-Nov-28 17:00S 04°37' W 119°31'6 1.4 25.7
2016-Nov-28 13:00S 04°40' W 119°26'0 0.0 25.7
2016-Nov-28 12:00S 04°40' W 119°26'0 0.0 25.6
2016-Nov-28 11:00S 04°40' W 119°26'4 0.8 25.7
2016-Nov-28 06:00S 04°42' W 119°23'1 0.6 25.7
2016-Nov-28 05:00S 04°42' W 119°22'2 2.5 25.7
2016-Nov-28 04:00S 04°43' W 119°20'3 1.1 25.8
2016-Nov-28 01:00S 04°44' W 119°17'0 0.0 25.8
2016-Nov-28 00:00S 04°44' W 119°17'0 0.0 25.8
2016-Nov-27 23:00S 04°44' W 119°17'4 1.9 25.9
2016-Nov-27 21:00S 04°45' W 119°13'0 0.0 25.8
2016-Nov-27 18:00S 04°45' W 119°13'0 0.0 25.7
2016-Nov-27 17:00S 04°45' W 119°13'1 0.6 25.7
2016-Nov-27 16:00S 04°45' W 119°13'2 0.8 25.7
2016-Nov-27 14:00S 04°46' W 119°11'0 0.0 25.7
2016-Nov-27 13:00S 04°46' W 119°11'1 1.3 25.7
2016-Nov-27 12:00S 04°47' W 119°10'7 3.3 25.7
2016-Nov-27 10:00S 04°47' W 119°04'0 0.0 25.7
2016-Nov-27 06:00S 04°47' W 119°04'2 1.8 25.8
2016-Nov-27 05:00S 04°49' W 119°04'0 0.0 25.8
2016-Nov-27 04:00S 04°49' W 119°04'2 0.6 25.8
2016-Nov-27 01:00S 04°49' W 119°02'2 1.2 25.9
2016-Nov-26 23:00S 04°49' W 118°59'0 0.0 25.9
2016-Nov-26 22:00S 04°49' W 118°59'1 0.6 25.9
2016-Nov-26 21:00S 04°49' W 119°00'3 1.1 25.9
2016-Nov-26 18:00S 04°50' W 118°57'2 1.8 25.8
2016-Nov-26 17:00S 04°50' W 118°55'0 0.0 25.7
2016-Nov-26 16:00S 04°50' W 118°55'4 2.0 25.7
2016-Nov-26 14:00S 04°52' W 118°52'0 0.0 25.7
2016-Nov-26 13:00S 04°52' W 118°52'0 0.0 25.7
2016-Nov-26 12:00S 04°52' W 118°52'4 1.8 25.7
2016-Nov-26 10:00S 04°52' W 118°48'0 0.0 25.7
2016-Nov-26 09:00S 04°52' W 118°48'0 0.0 25.7
2016-Nov-26 06:00S 04°52' W 118°48'1 0.8 25.8
2016-Nov-26 05:00S 04°52' W 118°47'0 0.0 25.8
2016-Nov-26 04:00S 04°52' W 118°47'5 1.6 25.8
2016-Nov-26 01:00S 04°54' W 118°43'0 0.0 25.9
2016-Nov-26 00:00S 04°54' W 118°43'1 1.3 25.9
2016-Nov-25 23:00S 04°55' W 118°43'3 2.5 25.9
2016-Nov-25 22:00S 04°57' W 118°41'3 2.5 25.9
2016-Nov-25 21:00S 04°55' W 118°43'3 0.8 25.9
2016-Nov-25 18:00S 04°57' W 118°41'5 4.9 25.7
2016-Nov-25 17:00S 04°58' W 118°36'2 0.8 25.7
2016-Nov-25 15:00S 04°59' W 118°35'0 0.0 25.7
2016-Nov-25 14:00S 04°59' W 118°35'1 1.3 25.6
2016-Nov-25 13:00S 05°00' W 118°34'3 0.4 25.6
2016-Nov-25 06:00S 05°02' W 118°32'1 0.7 25.7
2016-Nov-25 04:00S 05°02' W 118°31'2 0.8 25.7
2016-Nov-25 01:00S 05°03' W 118°28'0 0.0 25.8
2016-Nov-25 00:00S 05°03' W 118°28'1 0.8 25.8
2016-Nov-24 23:00S 05°04' W 118°29'4 4.4 25.8
2016-Nov-24 22:00S 05°05' W 118°25'1 0.2 25.8
2016-Nov-24 17:00S 05°04' W 118°24'1 0.2 25.6
2016-Nov-24 14:00S 05°05' W 118°24'0 0.0 25.6
2016-Nov-24 13:00S 05°05' W 118°24'2 1.7 25.6
2016-Nov-24 12:00S 05°06' W 118°23'0 0.0 25.6
2016-Nov-24 11:00S 05°06' W 118°23'2 0.5 25.6
2016-Nov-24 06:00S 05°06' W 118°20'   25.6
Track history (hours):
 
Tides and Currents Weather Stations Pressure Air Temp Water Temp Dewpoint Dewpoint Depression Visibility Wind Speed Wind Dir Waves Ship Positions

Aadnyj

Last reported at 2016-Dec-04 06:00 UTC. Time now 2016-Dec-04 10:11 UTC.
Position S 05°13' W 121°37'.

Length 56 m.

Type: Towing. MMSI: 413600286.

Water temperature 25.7 ° C

Date/timePositionNaut miles runAvg speedWind from/ knotsBaromVisibWave heightAir tempDewpointWater temp
2016-Dec-04 06:00S 05°13' W 121°37'0 0.0 25.7
2016-Dec-04 05:00S 05°13' W 121°37'2 1.7 25.7
2016-Dec-04 04:00S 05°12' W 121°36'4 1.3 25.7
2016-Dec-04 01:00S 05°09' W 121°34'1 0.3 25.9
2016-Dec-03 23:00S 05°09' W 121°33'4 4.2 25.9
2016-Dec-03 22:00S 05°06' W 121°30'0 0.0 25.9
2016-Dec-03 21:00S 05°06' W 121°30'0 0.0 25.9
2016-Dec-03 17:00S 05°06' W 121°30'2 0.8 25.6
2016-Dec-03 15:00S 05°05' W 121°29'2 1.8 25.6
2016-Dec-03 14:00S 05°03' W 121°29'1 0.6 25.6
2016-Dec-03 13:00S 05°03' W 121°28'0 0.0 25.6
2016-Dec-03 12:00S 05°03' W 121°28'1 1.3 25.6
2016-Dec-03 11:00S 05°02' W 121°28'1 1.3 25.6
2016-Dec-03 10:00S 05°01' W 121°27'0 0.0 25.7
2016-Dec-03 09:00S 05°01' W 121°27'0 0.0 25.7
2016-Dec-03 08:00S 05°01' W 121°27'5 2.5 25.7
2016-Dec-03 06:00S 04°57' W 121°23'1 0.6 25.8
2016-Dec-03 05:00S 04°57' W 121°24'3 1.7 25.8
2016-Dec-03 03:00S 04°55' W 121°21'3 1.5 25.8
2016-Dec-03 01:00S 04°53' W 121°19'1 0.7 25.9
2016-Dec-02 23:00S 04°53' W 121°17'6 5.6 25.9
2016-Dec-02 22:00S 04°50' W 121°13'0 0.0 25.9
2016-Dec-02 18:00S 04°50' W 121°13'2 1.8 25.8
2016-Dec-02 17:00S 04°48' W 121°13'0 0.0 25.7
2016-Dec-02 16:00S 04°48' W 121°13'6 3.2 25.7
2016-Dec-02 14:00S 04°46' W 121°07'0 0.0 25.7
2016-Dec-02 13:00S 04°46' W 121°07'0 0.0 25.7
2016-Dec-02 12:00S 04°46' W 121°07'1 0.8 25.7
2016-Dec-02 11:00S 04°45' W 121°06'1 0.4 25.7
2016-Dec-02 09:00S 04°44' W 121°05'6 2.1 25.7
2016-Dec-02 06:00S 04°43' W 120°59'1 0.6 25.8
2016-Dec-02 05:00S 04°42' W 120°59'2 1.8 25.8
2016-Dec-02 04:00S 04°42' W 120°58'4 2.0 25.8
2016-Dec-02 02:00S 04°40' W 120°54'0 0.0 25.9
2016-Dec-02 01:00S 04°40' W 120°54'0 0.0 25.9
2016-Dec-02 00:00S 04°40' W 120°54'1 1.2 25.9
2016-Dec-01 23:00S 04°40' W 120°53'0 0.0 26.0
2016-Dec-01 22:00S 04°40' W 120°53'7 1.8 25.9
2016-Dec-01 18:00S 04°38' W 120°46'0 0.0 25.8
2016-Dec-01 17:00S 04°38' W 120°46'1 1.3 25.8
2016-Dec-01 16:00S 04°37' W 120°45'3 3.0 25.8
2016-Dec-01 15:00S 04°37' W 120°42'0 0.0 25.8
2016-Dec-01 14:00S 04°37' W 120°42'1 1.2 25.7
2016-Dec-01 13:00S 04°37' W 120°41'1 0.6 25.8
2016-Dec-01 11:00S 04°37' W 120°40'7 1.3 25.8
2016-Dec-01 06:00S 04°35' W 120°33'4 4.2 25.8
2016-Dec-01 05:00S 04°36' W 120°29'3 0.8 25.8
2016-Dec-01 01:00S 04°35' W 120°26'0 0.0 25.9
2016-Dec-01 00:00S 04°35' W 120°26'4 2.1 25.9
2016-Nov-30 22:00S 04°35' W 120°22'1 0.3 26.0
2016-Nov-30 18:00S 04°34' W 120°20'3 3.0 25.8
2016-Nov-30 17:00S 04°34' W 120°17'4 1.4 25.7
2016-Nov-30 14:00S 04°34' W 120°13'0 0.0 25.7
2016-Nov-30 13:00S 04°34' W 120°13'0 0.0 25.7
2016-Nov-30 12:00S 04°34' W 120°13'0 0.0 25.7
2016-Nov-30 11:00S 04°34' W 120°13'1 0.8 25.7
2016-Nov-30 10:00S 04°34' W 120°13'0 0.0 25.7
2016-Nov-30 09:00S 04°34' W 120°13'4 1.4 25.7
2016-Nov-30 06:00S 04°33' W 120°08'0 0.0 25.8
2016-Nov-30 05:00S 04°33' W 120°08'11 2.8 25.8
2016-Nov-30 01:00S 04°33' W 119°57'7 7.2 25.9
2016-Nov-30 00:00S 04°33' W 120°04'7 7.2 25.9
2016-Nov-29 23:00S 04°33' W 119°57'0 0.0 25.9
2016-Nov-29 22:00S 04°33' W 119°57'0 0.0 25.9
2016-Nov-29 18:00S 04°33' W 119°57'4 4.4 25.7
2016-Nov-29 17:00S 04°34' W 119°53'0 0.0 25.7
2016-Nov-29 15:00S 04°34' W 119°53'3 3.1 25.7
2016-Nov-29 14:00S 04°35' W 119°50'1 0.6 25.7
2016-Nov-29 13:00S 04°34' W 119°50'0 0.0 25.7
2016-Nov-29 12:00S 04°34' W 119°50'0 0.0 25.7
2016-Nov-29 11:00S 04°34' W 119°50'0 0.0 25.7
2016-Nov-29 10:00S 04°34' W 119°50'0 0.0 25.7
2016-Nov-29 09:00S 04°34' W 119°50'5 1.6 25.7
2016-Nov-29 06:00S 04°35' W 119°45'1 1.2 25.8
2016-Nov-29 05:00S 04°35' W 119°44'2 1.8 25.8
2016-Nov-29 04:00S 04°35' W 119°42'5 1.8 25.8
2016-Nov-29 01:00S 04°35' W 119°37'0 0.0 25.9
2016-Nov-29 00:00S 04°35' W 119°37'1 0.6 25.9
2016-Nov-28 23:00S 04°35' W 119°37'6 2.8 26.0
2016-Nov-28 21:00S 04°37' W 119°32'1 0.1 25.9
2016-Nov-28 17:00S 04°37' W 119°31'6 1.4 25.7
2016-Nov-28 13:00S 04°40' W 119°26'0 0.0 25.7
2016-Nov-28 12:00S 04°40' W 119°26'0 0.0 25.6
2016-Nov-28 11:00S 04°40' W 119°26'4 0.8 25.7
2016-Nov-28 06:00S 04°42' W 119°23'1 0.6 25.7
2016-Nov-28 05:00S 04°42' W 119°22'2 2.5 25.7
2016-Nov-28 04:00S 04°43' W 119°20'3 1.1 25.8
2016-Nov-28 01:00S 04°44' W 119°17'0 0.0 25.8
2016-Nov-28 00:00S 04°44' W 119°17'0 0.0 25.8
2016-Nov-27 23:00S 04°44' W 119°17'4 1.9 25.9
2016-Nov-27 21:00S 04°45' W 119°13'0 0.0 25.8
2016-Nov-27 18:00S 04°45' W 119°13'0 0.0 25.7
2016-Nov-27 17:00S 04°45' W 119°13'1 0.6 25.7
2016-Nov-27 16:00S 04°45' W 119°13'2 0.8 25.7
2016-Nov-27 14:00S 04°46' W 119°11'0 0.0 25.7
2016-Nov-27 13:00S 04°46' W 119°11'1 1.3 25.7
2016-Nov-27 12:00S 04°47' W 119°10'7 3.3 25.7
2016-Nov-27 10:00S 04°47' W 119°04'0 0.0 25.7
2016-Nov-27 06:00S 04°47' W 119°04'2 1.8 25.8
2016-Nov-27 05:00S 04°49' W 119°04'0 0.0 25.8
2016-Nov-27 04:00S 04°49' W 119°04'2 0.6 25.8
2016-Nov-27 01:00S 04°49' W 119°02'2 1.2 25.9
2016-Nov-26 23:00S 04°49' W 118°59'0 0.0 25.9
2016-Nov-26 22:00S 04°49' W 118°59'1 0.6 25.9
2016-Nov-26 21:00S 04°49' W 119°00'3 1.1 25.9
2016-Nov-26 18:00S 04°50' W 118°57'2 1.8 25.8
2016-Nov-26 17:00S 04°50' W 118°55'0 0.0 25.7
2016-Nov-26 16:00S 04°50' W 118°55'4 2.0 25.7
2016-Nov-26 14:00S 04°52' W 118°52'0 0.0 25.7
2016-Nov-26 13:00S 04°52' W 118°52'0 0.0 25.7
2016-Nov-26 12:00S 04°52' W 118°52'4 1.8 25.7
2016-Nov-26 10:00S 04°52' W 118°48'0 0.0 25.7
2016-Nov-26 09:00S 04°52' W 118°48'0 0.0 25.7
2016-Nov-26 06:00S 04°52' W 118°48'1 0.8 25.8
2016-Nov-26 05:00S 04°52' W 118°47'0 0.0 25.8
2016-Nov-26 04:00S 04°52' W 118°47'5 1.6 25.8
2016-Nov-26 01:00S 04°54' W 118°43'0 0.0 25.9
2016-Nov-26 00:00S 04°54' W 118°43'1 1.3 25.9
2016-Nov-25 23:00S 04°55' W 118°43'3 2.5 25.9
2016-Nov-25 22:00S 04°57' W 118°41'3 2.5 25.9
2016-Nov-25 21:00S 04°55' W 118°43'3 0.8 25.9
2016-Nov-25 18:00S 04°57' W 118°41'5 4.9 25.7
2016-Nov-25 17:00S 04°58' W 118°36'2 0.8 25.7
2016-Nov-25 15:00S 04°59' W 118°35'0 0.0 25.7
2016-Nov-25 14:00S 04°59' W 118°35'1 1.3 25.6
2016-Nov-25 13:00S 05°00' W 118°34'3 0.4 25.6
2016-Nov-25 06:00S 05°02' W 118°32'1 0.7 25.7
2016-Nov-25 04:00S 05°02' W 118°31'2 0.8 25.7
2016-Nov-25 01:00S 05°03' W 118°28'0 0.0 25.8
2016-Nov-25 00:00S 05°03' W 118°28'1 0.8 25.8
2016-Nov-24 23:00S 05°04' W 118°29'4 4.4 25.8
2016-Nov-24 22:00S 05°05' W 118°25'1 0.2 25.8
2016-Nov-24 17:00S 05°04' W 118°24'1 0.2 25.6
2016-Nov-24 14:00S 05°05' W 118°24'0 0.0 25.6
2016-Nov-24 13:00S 05°05' W 118°24'2 1.7 25.6
2016-Nov-24 12:00S 05°06' W 118°23'0 0.0 25.6
2016-Nov-24 11:00S 05°06' W 118°23'2 0.5 25.6
2016-Nov-24 06:00S 05°06' W 118°20'   25.6

Dump ship's entire track history